Time;durP1;ratioP1;P1;durP2;ratioP2;P2;SDS_P1;SDS_P2;PMS_P1;PMS_P2;Temp;Humidity;BMP_temperature;BMP_pressure;BME280_temperature;BME280_humidity;BME280_pressure;Samples;Min_cycle;Max_cycle;Signal;HPM_P1;HPM_P2
2023/01/04 00:01:03;;;;;;;;;0.75;0.00;;;;;;;;5079965;28;63865;-79
2023/01/04 00:03:30;;;;;;;;;1.00;1.00;;;;;;;;5082309;28;62016;-80
2023/01/04 00:05:59;;;;;;;;;3.75;1.00;;;;;;;;5081806;28;62021;-79
2023/01/04 00:08:24;;;;;;;;;5.25;1.00;;;;;;;;5082379;28;62029;-79
2023/01/04 00:10:50;;;;;;;;;1.75;0.50;;;;;;;;5079805;28;63573;-79
2023/01/04 00:13:15;;;;;;;;;3.25;1.00;;;;;;;;5082232;28;61692;-79
2023/01/04 00:15:40;;;;;;;;;1.00;1.00;;;;;;;;5080729;28;61714;-79
2023/01/04 00:18:06;;;;;;;;;1.00;0.00;;;;;;;;5082174;28;61699;-79
2023/01/04 00:20:31;;;;;;;;;1.00;1.00;;;;;;;;5081053;28;62247;-80
2023/01/04 00:22:57;;;;;;;;;0.25;0.00;;;;;;;;5081883;28;61932;-79
2023/01/04 00:25:22;;;;;;;;;3.00;2.00;;;;;;;;5081532;28;61828;-79
2023/01/04 00:27:49;;;;;;;;;1.75;1.00;;;;;;;;5082352;28;61718;-81
2023/01/04 00:30:14;;;;;;;;;1.00;1.00;;;;;;;;5081369;28;61915;-80
2023/01/04 00:32:39;;;;;;;;;3.50;1.00;;;;;;;;5080351;28;61828;-82
2023/01/04 00:35:05;;;;;;;;;1.00;1.00;;;;;;;;5080169;28;61789;-82
2023/01/04 00:37:30;;;;;;;;;1.00;1.00;;;;;;;;5080746;28;62012;-82
2023/01/04 00:39:55;;;;;;;;;0.25;0.25;;;;;;;;5081447;27;61820;-78
2023/01/04 00:42:20;;;;;;;;;1.00;1.00;;;;;;;;5102363;27;61878;-80
2023/01/04 00:44:46;;;;;;;;;0.00;0.00;;;;;;;;5100789;27;61811;-79
2023/01/04 00:47:11;;;;;;;;;1.00;1.00;;;;;;;;5100588;27;61852;-79
2023/01/04 00:49:36;;;;;;;;;1.75;0.75;;;;;;;;5100863;27;61795;-79
2023/01/04 00:52:01;;;;;;;;;1.00;1.00;;;;;;;;5102921;27;62045;-79
2023/01/04 00:54:27;;;;;;;;;1.00;1.00;;;;;;;;5105567;27;61897;-79
2023/01/04 00:56:52;;;;;;;;;3.00;2.00;;;;;;;;5105676;27;61809;-79
2023/01/04 00:59:19;;;;;;;;;1.00;1.00;;;;;;;;5103549;27;63846;-79
2023/01/04 01:01:44;;;;;;;;;1.00;1.00;;;;;;;;5104152;27;61750;-79
2023/01/04 01:04:15;;;;;;;;;1.50;1.00;;;;;;;;5103804;27;61728;-79
2023/01/04 01:06:41;;;;;;;;;2.50;1.00;;;;;;;;5105736;27;61872;-79
2023/01/04 01:09:06;;;;;;;;;3.25;2.00;;;;;;;;5104332;27;61985;-79
2023/01/04 01:11:33;;;;;;;;;5.00;0.75;;;;;;;;5105139;27;61923;-79
2023/01/04 01:13:58;;;;;;;;;2.25;2.00;;;;;;;;5104189;27;61823;-79
2023/01/04 01:16:24;;;;;;;;;2.00;2.00;;;;;;;;5105213;27;61762;-79
2023/01/04 01:18:49;;;;;;;;;5.00;1.00;;;;;;;;5102980;27;64798;-79
2023/01/04 01:21:16;;;;;;;;;2.00;1.25;;;;;;;;5103472;27;61910;-79
2023/01/04 01:23:42;;;;;;;;;2.25;1.25;;;;;;;;5103633;27;61944;-79
2023/01/04 01:26:09;;;;;;;;;3.00;1.00;;;;;;;;5105021;27;62008;-79
2023/01/04 01:28:35;;;;;;;;;1.00;1.00;;;;;;;;5104765;27;61952;-79
2023/01/04 01:31:11;;;;;;;;;1.00;1.00;;;;;;;;5104963;27;61916;-79
2023/01/04 01:33:36;;;;;;;;;1.75;1.25;;;;;;;;5104906;27;61816;-79
2023/01/04 01:36:02;;;;;;;;;1.00;1.00;;;;;;;;5104541;27;61801;-79
2023/01/04 01:38:28;;;;;;;;;3.00;1.75;;;;;;;;5104250;27;62098;-79
2023/01/04 01:40:53;;;;;;;;;2.50;1.50;;;;;;;;5101600;27;61941;-79
2023/01/04 01:43:19;;;;;;;;;1.75;1.00;;;;;;;;5104899;27;61812;-79
2023/01/04 01:45:51;;;;;;;;;0.75;0.75;;;;;;;;5104986;27;62376;-79
2023/01/04 01:48:19;;;;;;;;;2.00;2.00;;;;;;;;5103812;27;61870;-79
2023/01/04 01:50:56;;;;;;;;;2.50;2.00;;;;;;;;5102707;27;61889;-79
2023/01/04 01:53:24;;;;;;;;;2.25;1.00;;;;;;;;5104484;27;61774;-80
2023/01/04 01:55:50;;;;;;;;;2.75;0.75;;;;;;;;5104908;27;61966;-79
2023/01/04 01:58:20;;;;;;;;;2.25;1.00;;;;;;;;5102366;27;65232;-79
2023/01/04 02:00:45;;;;;;;;;0.50;0.50;;;;;;;;5104463;27;61920;-79
2023/01/04 02:03:14;;;;;;;;;1.00;1.00;;;;;;;;5102884;27;61953;-79
2023/01/04 02:05:40;;;;;;;;;1.75;0.25;;;;;;;;5102706;27;61912;-80
2023/01/04 02:08:06;;;;;;;;;2.00;1.00;;;;;;;;5101620;27;63836;-79
2023/01/04 02:10:32;;;;;;;;;2.25;1.75;;;;;;;;5104278;27;61749;-79
2023/01/04 02:12:59;;;;;;;;;0.75;0.75;;;;;;;;5104381;27;61683;-79
2023/01/04 02:15:28;;;;;;;;;1.25;1.25;;;;;;;;5102892;27;61585;-79
2023/01/04 02:17:58;;;;;;;;;3.00;1.50;;;;;;;;5103822;27;63044;-79
2023/01/04 02:20:28;;;;;;;;;1.00;1.00;;;;;;;;5103005;27;62045;-79
2023/01/04 02:23:13;;;;;;;;;1.25;0.00;;;;;;;;5104251;27;61906;-79
2023/01/04 02:25:56;;;;;;;;;1.00;1.00;;;;;;;;5104208;27;61729;-79
2023/01/04 02:28:21;;;;;;;;;1.00;1.00;;;;;;;;5101960;27;63941;-79
2023/01/04 02:30:58;;;;;;;;;3.00;2.00;;;;;;;;5102723;27;62017;-79
2023/01/04 02:33:32;;;;;;;;;2.00;1.00;;;;;;;;5102703;27;61831;-79
2023/01/04 02:36:00;;;;;;;;;2.00;1.00;;;;;;;;5104106;27;62126;-79
2023/01/04 02:38:41;;;;;;;;;0.00;0.00;;;;;;;;5103208;27;61824;-79
2023/01/04 02:41:22;;;;;;;;;1.00;1.00;;;;;;;;5100465;27;61730;-79
2023/01/04 02:46:47;;;;;;;;;1.00;1.00;;;;;;;;5103918;27;61847;-79
2023/01/04 02:51:57;;;;;;;;;0.75;0.50;;;;;;;;5103908;27;61782;-79
2023/01/04 02:54:26;;;;;;;;;1.00;1.00;;;;;;;;5103584;27;61751;-79
2023/01/04 02:57:06;;;;;;;;;1.00;1.00;;;;;;;;5103662;27;61960;-79
2023/01/04 02:59:41;;;;;;;;;1.00;1.00;;;;;;;;5102982;27;61987;-79
2023/01/04 03:07:52;;;;;;;;;1.00;1.00;;;;;;;;5103336;27;61920;-79
2023/01/04 03:10:24;;;;;;;;;4.50;1.00;;;;;;;;5102854;27;63060;-79
2023/01/04 03:12:53;;;;;;;;;2.00;0.50;;;;;;;;5101935;27;62183;-79
2023/01/04 03:15:22;;;;;;;;;3.50;1.00;;;;;;;;5102535;27;61917;-79
2023/01/04 03:17:59;;;;;;;;;1.50;0.50;;;;;;;;5101965;27;61883;-79
2023/01/04 03:20:28;;;;;;;;;1.75;1.50;;;;;;;;5100551;27;63004;-79
2023/01/04 03:37:10;;;;;;;;;1.00;1.00;;;;;;;;5103024;27;61855;-79
2023/01/04 03:48:29;;;;;;;;;0.50;0.50;;;;;;;;5082431;28;61945;-79
2023/01/04 03:50:59;;;;;;;;;0.00;0.00;;;;;;;;5080585;28;61767;-79
2023/01/04 03:53:25;;;;;;;;;3.00;0.00;;;;;;;;5080296;28;65124;-79
2023/01/04 03:55:51;;;;;;;;;1.00;1.00;;;;;;;;5080907;28;61965;-79
2023/01/04 03:58:18;;;;;;;;;0.00;0.00;;;;;;;;5082311;28;61878;-79
2023/01/04 04:00:44;;;;;;;;;0.00;0.00;;;;;;;;5082456;27;62118;-79
2023/01/04 04:03:09;;;;;;;;;1.00;1.00;;;;;;;;5081538;27;61779;-79
2023/01/04 04:08:29;;;;;;;;;1.00;0.25;;;;;;;;5082029;28;61719;-79
2023/01/04 04:11:28;;;;;;;;;1.00;0.00;;;;;;;;5082349;27;61871;-78
2023/01/04 04:13:47;;;;;;;;;0.25;0.25;;;;;;;;5081258;27;62598;-79
2023/01/04 04:16:13;;;;;;;;;0.00;0.00;;;;;;;;5081770;27;62267;-79
2023/01/04 04:18:38;;;;;;;;;0.00;0.00;;;;;;;;5081709;27;61944;-77
2023/01/04 04:21:03;;;;;;;;;0.00;0.00;;;;;;;;5081866;28;61980;-79
2023/01/04 04:23:29;;;;;;;;;0.00;0.00;;;;;;;;5080125;28;64779;-79
2023/01/04 04:25:54;;;;;;;;;2.50;0.00;;;;;;;;5081826;28;61690;-79
2023/01/04 04:28:19;;;;;;;;;0.00;0.00;;;;;;;;5084740;28;61793;-79
2023/01/04 04:30:47;;;;;;;;;0.75;0.00;;;;;;;;5085503;27;62070;-79
2023/01/04 04:33:13;;;;;;;;;0.00;0.00;;;;;;;;5084997;28;62364;-79
2023/01/04 04:35:38;;;;;;;;;1.50;0.00;;;;;;;;5084852;28;61961;-79
2023/01/04 04:38:03;;;;;;;;;0.00;0.00;;;;;;;;5085339;28;61804;-79
2023/01/04 04:43:12;;;;;;;;;2.00;0.25;;;;;;;;5105470;27;62800;-79
2023/01/04 04:45:38;;;;;;;;;0.00;0.00;;;;;;;;5103667;27;61950;-79
2023/01/04 04:48:03;;;;;;;;;0.00;0.00;;;;;;;;5105750;27;61985;-79
2023/01/04 04:50:28;;;;;;;;;0.00;0.00;;;;;;;;5105594;27;62046;-79
2023/01/04 04:52:53;;;;;;;;;0.50;0.00;;;;;;;;5104890;27;61738;-79
2023/01/04 04:55:19;;;;;;;;;1.00;1.00;;;;;;;;5104292;27;62130;-77
2023/01/04 04:57:44;;;;;;;;;0.00;0.00;;;;;;;;5105246;27;62079;-79
2023/01/04 05:00:09;;;;;;;;;4.50;0.25;;;;;;;;5105612;27;61758;-79
2023/01/04 05:02:35;;;;;;;;;2.00;1.00;;;;;;;;5104976;27;61824;-79
2023/01/04 05:05:00;;;;;;;;;0.50;0.00;;;;;;;;5105094;27;61875;-80
2023/01/04 05:07:25;;;;;;;;;0.00;0.00;;;;;;;;5103663;27;61770;-79
2023/01/04 05:09:50;;;;;;;;;0.75;0.00;;;;;;;;5105433;27;61946;-79
2023/01/04 05:15:00;;;;;;;;;0.00;0.00;;;;;;;;5105035;27;61736;-79
2023/01/04 05:17:25;;;;;;;;;0.00;0.00;;;;;;;;5105058;27;61654;-79
2023/01/04 05:19:50;;;;;;;;;1.00;0.00;;;;;;;;5104767;27;61762;-79
2023/01/04 05:22:15;;;;;;;;;0.25;0.25;;;;;;;;5104525;27;62630;-78
2023/01/04 05:24:41;;;;;;;;;0.00;0.00;;;;;;;;5103454;27;61769;-79
2023/01/04 05:27:06;;;;;;;;;0.00;0.00;;;;;;;;5105009;27;61932;-79
2023/01/04 05:32:15;;;;;;;;;0.00;0.00;;;;;;;;5104327;27;62569;-78
2023/01/04 05:34:40;;;;;;;;;1.00;0.00;;;;;;;;5104643;27;61817;-79
2023/01/04 05:37:05;;;;;;;;;1.50;0.50;;;;;;;;5103400;27;61757;-79
2023/01/04 05:39:30;;;;;;;;;2.00;0.75;;;;;;;;5103959;27;61812;-79
2023/01/04 05:44:40;;;;;;;;;0.00;0.00;;;;;;;;5104766;27;61919;-79
2023/01/04 05:47:05;;;;;;;;;1.00;0.00;;;;;;;;5104188;27;61753;-79
2023/01/04 05:49:30;;;;;;;;;0.00;0.00;;;;;;;;5102958;27;61803;-79
2023/01/04 05:51:55;;;;;;;;;0.00;0.00;;;;;;;;5104047;27;62815;-79
2023/01/04 05:54:21;;;;;;;;;0.00;0.00;;;;;;;;5103013;27;61935;-79
2023/01/04 05:56:46;;;;;;;;;0.00;0.00;;;;;;;;5104440;27;61941;-79
2023/01/04 05:59:11;;;;;;;;;2.25;0.00;;;;;;;;5103022;27;62208;-79
2023/01/04 06:01:36;;;;;;;;;0.00;0.00;;;;;;;;5103753;27;62024;-79
2023/01/04 06:04:02;;;;;;;;;0.00;0.00;;;;;;;;5103918;27;61877;-79
2023/01/04 06:06:27;;;;;;;;;0.00;0.00;;;;;;;;5104134;27;61733;-80
2023/01/04 06:08:52;;;;;;;;;0.00;0.00;;;;;;;;5104263;27;62035;-79
2023/01/04 06:11:17;;;;;;;;;0.00;0.00;;;;;;;;5084314;27;61870;-80
2023/01/04 06:13:44;;;;;;;;;0.00;0.00;;;;;;;;5083442;28;61958;-78
2023/01/04 06:16:11;;;;;;;;;0.25;0.25;;;;;;;;5082225;28;61984;-79
2023/01/04 06:18:40;;;;;;;;;0.00;0.00;;;;;;;;5082759;28;61733;-79
2023/01/04 06:21:05;;;;;;;;;1.00;0.00;;;;;;;;5083235;28;61754;-79
2023/01/04 06:23:30;;;;;;;;;0.00;0.00;;;;;;;;5083516;28;61949;-80
2023/01/04 06:25:56;;;;;;;;;0.00;0.00;;;;;;;;5082208;28;61820;-81
2023/01/04 06:28:21;;;;;;;;;0.00;0.00;;;;;;;;5081722;28;62146;-80
2023/01/04 06:30:46;;;;;;;;;0.00;0.00;;;;;;;;5081208;28;63962;-80
2023/01/04 06:33:11;;;;;;;;;1.00;1.00;;;;;;;;5081579;27;62550;-81
2023/01/04 06:35:37;;;;;;;;;2.00;2.00;;;;;;;;5082809;28;61751;-81
2023/01/04 06:38:02;;;;;;;;;2.50;0.25;;;;;;;;5080403;28;62301;-80
2023/01/04 06:40:27;;;;;;;;;1.00;1.00;;;;;;;;5080704;27;62033;-79
2023/01/04 06:42:53;;;;;;;;;0.50;0.50;;;;;;;;5080267;28;61951;-79
2023/01/04 06:45:18;;;;;;;;;0.75;0.00;;;;;;;;5082173;28;61903;-79
2023/01/04 06:47:44;;;;;;;;;0.00;0.00;;;;;;;;5081390;28;61797;-80
2023/01/04 06:50:09;;;;;;;;;0.00;0.00;;;;;;;;5079048;28;63499;-80
2023/01/04 06:52:35;;;;;;;;;0.00;0.00;;;;;;;;5082409;27;61905;-79
2023/01/04 06:55:00;;;;;;;;;0.00;0.00;;;;;;;;5080493;28;61844;-79
2023/01/04 06:57:26;;;;;;;;;0.00;0.00;;;;;;;;5082269;28;61892;-79
2023/01/04 06:59:51;;;;;;;;;1.00;0.00;;;;;;;;5081715;27;62479;-79
2023/01/04 07:02:17;;;;;;;;;0.00;0.00;;;;;;;;5081431;27;61777;-79
2023/01/04 07:04:42;;;;;;;;;1.00;0.00;;;;;;;;5082073;27;61881;-79
2023/01/04 07:07:07;;;;;;;;;2.00;0.00;;;;;;;;5081329;28;62082;-79
2023/01/04 07:09:32;;;;;;;;;0.00;0.00;;;;;;;;5081937;28;62064;-79
2023/01/04 07:11:58;;;;;;;;;0.00;0.00;;;;;;;;5082180;28;61994;-80
2023/01/04 07:14:24;;;;;;;;;1.00;0.00;;;;;;;;5082810;27;61929;-80
2023/01/04 07:16:49;;;;;;;;;0.75;0.75;;;;;;;;5082989;28;61738;-79
2023/01/04 07:19:14;;;;;;;;;0.00;0.00;;;;;;;;5081435;28;62673;-80
2023/01/04 07:21:40;;;;;;;;;0.00;0.00;;;;;;;;5082659;27;62000;-80
2023/01/04 07:24:05;;;;;;;;;1.00;0.00;;;;;;;;5082407;28;61861;-80
2023/01/04 07:26:30;;;;;;;;;0.00;0.00;;;;;;;;5082766;27;61742;-80
2023/01/04 07:29:14;;;;;;;;;0.00;0.00;;;;;;;;5082105;28;61986;-80
2023/01/04 07:31:39;;;;;;;;;0.00;0.00;;;;;;;;5073988;28;61938;-82
2023/01/04 07:34:07;;;;;;;;;0.00;0.00;;;;;;;;5060848;28;61942;-83
2023/01/04 07:36:35;;;;;;;;;1.00;0.00;;;;;;;;5081944;28;61818;-81
2023/01/04 07:39:01;;;;;;;;;0.00;0.00;;;;;;;;5079761;28;63849;-82
2023/01/04 07:41:26;;;;;;;;;0.00;0.00;;;;;;;;5093251;27;62021;-81
2023/01/04 07:43:52;;;;;;;;;0.00;0.00;;;;;;;;5087924;27;61832;-83
2023/01/04 07:46:17;;;;;;;;;0.00;0.00;;;;;;;;5081398;27;61771;-85
2023/01/04 07:48:42;;;;;;;;;0.00;0.00;;;;;;;;5080123;28;63741;-82
2023/01/04 07:51:08;;;;;;;;;0.00;0.00;;;;;;;;5082168;28;61955;-83
2023/01/04 07:53:33;;;;;;;;;0.00;0.00;;;;;;;;5081835;27;61790;-81
2023/01/04 07:55:58;;;;;;;;;0.00;0.00;;;;;;;;5081639;28;61911;-79
2023/01/04 07:58:24;;;;;;;;;0.00;0.00;;;;;;;;5081028;28;62801;-81
2023/01/04 08:00:50;;;;;;;;;0.00;0.00;;;;;;;;5080730;28;61774;-82
2023/01/04 08:03:15;;;;;;;;;0.25;0.00;;;;;;;;5083548;28;62275;-81
2023/01/04 08:05:41;;;;;;;;;1.25;0.00;;;;;;;;5085135;28;62325;-79
2023/01/04 08:08:06;;;;;;;;;0.00;0.00;;;;;;;;5082547;27;61942;-78
2023/01/04 08:10:31;;;;;;;;;0.00;0.00;;;;;;;;5082957;28;61946;-78
2023/01/04 08:12:57;;;;;;;;;1.00;0.00;;;;;;;;5085821;28;62086;-80
2023/01/04 08:15:23;;;;;;;;;0.75;0.00;;;;;;;;5084289;28;61940;-81
2023/01/04 08:17:48;;;;;;;;;0.00;0.00;;;;;;;;5085004;27;61960;-81
2023/01/04 08:20:14;;;;;;;;;0.00;0.00;;;;;;;;5084904;27;62656;-82
2023/01/04 08:22:39;;;;;;;;;2.00;1.00;;;;;;;;5084131;28;61991;-81
2023/01/04 08:25:05;;;;;;;;;0.00;0.00;;;;;;;;5085498;27;61632;-82
2023/01/04 08:27:31;;;;;;;;;0.00;0.00;;;;;;;;5084654;27;61909;-81
2023/01/04 08:29:57;;;;;;;;;1.00;0.00;;;;;;;;5085517;27;62015;-80
2023/01/04 08:32:22;;;;;;;;;0.00;0.00;;;;;;;;5080450;27;61964;-80
2023/01/04 08:34:47;;;;;;;;;0.50;0.50;;;;;;;;5080188;28;62132;-81
2023/01/04 08:37:13;;;;;;;;;1.00;0.00;;;;;;;;5064716;28;62008;-82
2023/01/04 08:39:39;;;;;;;;;0.00;0.00;;;;;;;;5081064;28;61839;-80
2023/01/04 08:42:04;;;;;;;;;0.00;0.00;;;;;;;;5104724;27;61884;-81
2023/01/04 08:44:30;;;;;;;;;0.00;0.00;;;;;;;;5104263;27;61732;-81
2023/01/04 08:46:57;;;;;;;;;0.00;0.00;;;;;;;;5103238;27;64813;-81
2023/01/04 08:49:23;;;;;;;;;1.00;0.25;;;;;;;;5103298;27;61756;-81
2023/01/04 08:51:48;;;;;;;;;1.00;0.00;;;;;;;;5103933;27;61983;-77
2023/01/04 08:54:14;;;;;;;;;0.00;0.00;;;;;;;;5105524;27;61694;-78
2023/01/04 08:56:39;;;;;;;;;0.25;0.00;;;;;;;;5104448;27;61965;-80
2023/01/04 08:59:05;;;;;;;;;0.00;0.00;;;;;;;;5105564;27;61777;-81
2023/01/04 09:01:31;;;;;;;;;0.75;0.00;;;;;;;;5103889;27;61719;-80
2023/01/04 09:03:56;;;;;;;;;0.00;0.00;;;;;;;;5104440;27;62096;-81
2023/01/04 09:06:22;;;;;;;;;1.00;0.00;;;;;;;;5083692;27;64867;-78
2023/01/04 09:08:47;;;;;;;;;0.00;0.00;;;;;;;;5084381;27;61801;-78
2023/01/04 09:11:18;;;;;;;;;0.00;0.00;;;;;;;;5083394;28;61805;-76
2023/01/04 09:13:43;;;;;;;;;0.00;0.00;;;;;;;;5084582;27;61868;-75
2023/01/04 09:16:13;;;;;;;;;1.00;0.00;;;;;;;;5083711;27;61844;-76
2023/01/04 09:18:38;;;;;;;;;0.00;0.00;;;;;;;;5083422;27;62080;-76
2023/01/04 09:21:04;;;;;;;;;1.75;0.00;;;;;;;;5081794;28;62028;-76
2023/01/04 09:23:30;;;;;;;;;0.00;0.00;;;;;;;;5082953;28;61971;-81
2023/01/04 09:25:55;;;;;;;;;1.00;0.00;;;;;;;;5083779;27;63014;-79
2023/01/04 09:28:20;;;;;;;;;0.25;0.00;;;;;;;;5082885;28;61982;-79
2023/01/04 09:30:46;;;;;;;;;0.00;0.00;;;;;;;;5082656;28;61853;-79
2023/01/04 09:33:11;;;;;;;;;0.75;0.00;;;;;;;;5084619;28;61715;-79
2023/01/04 09:35:36;;;;;;;;;0.00;0.00;;;;;;;;5082696;28;62806;-77
2023/01/04 09:38:01;;;;;;;;;0.00;0.00;;;;;;;;5084499;27;61850;-76
2023/01/04 09:40:30;;;;;;;;;0.00;0.00;;;;;;;;5088224;27;61982;-79
2023/01/04 09:42:57;;;;;;;;;2.00;0.00;;;;;;;;5103574;27;61795;-77
2023/01/04 09:45:25;;;;;;;;;0.00;0.00;;;;;;;;5095314;27;61790;-75
2023/01/04 09:48:00;;;;;;;;;0.00;0.00;;;;;;;;5083625;28;61904;-75
2023/01/04 09:50:47;;;;;;;;;0.00;0.00;;;;;;;;5081498;28;61912;-81
2023/01/04 09:53:20;;;;;;;;;0.00;0.00;;;;;;;;5084555;28;61708;-77
2023/01/04 09:55:49;;;;;;;;;1.00;1.00;;;;;;;;5081747;28;62862;-77
2023/01/04 09:58:25;;;;;;;;;0.00;0.00;;;;;;;;5083757;27;61884;-81
2023/01/04 10:01:03;;;;;;;;;0.00;0.00;;;;;;;;5083476;28;62216;-81
2023/01/04 10:03:33;;;;;;;;;0.00;0.00;;;;;;;;5083532;28;62075;-78
2023/01/04 10:05:59;;;;;;;;;0.00;0.00;;;;;;;;5080290;28;61985;-76
2023/01/04 10:08:25;;;;;;;;;2.00;0.00;;;;;;;;5078883;28;61829;-78
2023/01/04 10:10:53;;;;;;;;;0.00;0.00;;;;;;;;5081140;28;62015;-78
2023/01/04 10:13:37;;;;;;;;;0.00;0.00;;;;;;;;5082645;27;62000;-79
2023/01/04 10:16:11;;;;;;;;;0.00;0.00;;;;;;;;5080341;28;61932;-78
2023/01/04 10:18:44;;;;;;;;;0.50;0.50;;;;;;;;5082820;28;61796;-78
2023/01/04 10:21:25;;;;;;;;;0.00;0.00;;;;;;;;5082847;28;61861;-77
2023/01/04 10:23:55;;;;;;;;;0.00;0.00;;;;;;;;5063210;28;62145;-78
2023/01/04 10:26:24;;;;;;;;;0.50;0.00;;;;;;;;5062110;28;61927;-78
2023/01/04 10:29:01;;;;;;;;;0.00;0.00;;;;;;;;5062979;28;62260;-79
2023/01/04 10:31:40;;;;;;;;;1.50;0.00;;;;;;;;5074047;28;61732;-79
2023/01/04 10:34:21;;;;;;;;;0.00;0.00;;;;;;;;5081598;27;62202;-78
2023/01/04 10:36:47;;;;;;;;;0.00;0.00;;;;;;;;5082078;27;61752;-78
2023/01/04 10:39:14;;;;;;;;;0.00;0.00;;;;;;;;5082722;28;61913;-78
2023/01/04 10:41:48;;;;;;;;;1.00;0.75;;;;;;;;5084555;27;62008;-78
2023/01/04 10:44:16;;;;;;;;;0.00;0.00;;;;;;;;5080668;28;61753;-78
2023/01/04 10:46:48;;;;;;;;;0.00;0.00;;;;;;;;5082047;28;61722;-78
2023/01/04 10:49:25;;;;;;;;;0.00;0.00;;;;;;;;5080190;28;61878;-78
2023/01/04 10:51:55;;;;;;;;;0.75;0.00;;;;;;;;5080111;28;61747;-78
2023/01/04 10:54:32;;;;;;;;;0.00;0.00;;;;;;;;5086224;27;61884;-79
2023/01/04 10:57:20;;;;;;;;;0.00;0.00;;;;;;;;5091724;27;61856;-78
2023/01/04 10:59:50;;;;;;;;;0.00;0.00;;;;;;;;5086409;27;61914;-78
2023/01/04 11:02:34;;;;;;;;;0.00;0.00;;;;;;;;5088768;27;61790;-78
2023/01/04 11:05:21;;;;;;;;;3.25;0.25;;;;;;;;5088040;27;61979;-79
2023/01/04 11:07:46;;;;;;;;;0.00;0.00;;;;;;;;5088708;27;62502;-78
2023/01/04 11:10:20;;;;;;;;;2.00;0.50;;;;;;;;5090496;27;61939;-78
2023/01/04 11:12:45;;;;;;;;;1.00;0.00;;;;;;;;5089631;27;61717;-78
2023/01/04 11:15:11;;;;;;;;;0.50;0.50;;;;;;;;5090938;27;62590;-78
2023/01/04 11:17:36;;;;;;;;;0.50;0.50;;;;;;;;5090612;27;63232;-78
2023/01/04 11:20:02;;;;;;;;;0.00;0.00;;;;;;;;5089308;27;62311;-79
2023/01/04 11:22:36;;;;;;;;;2.00;0.50;;;;;;;;5091578;27;61770;-78
2023/01/04 11:25:04;;;;;;;;;1.00;0.00;;;;;;;;5087139;27;62618;-78
2023/01/04 11:27:31;;;;;;;;;0.00;0.00;;;;;;;;5089290;27;62777;-78
2023/01/04 11:30:12;;;;;;;;;1.25;0.25;;;;;;;;5092508;27;61784;-79
2023/01/04 11:32:38;;;;;;;;;0.00;0.00;;;;;;;;5092481;27;61874;-78
2023/01/04 11:35:03;;;;;;;;;0.25;0.25;;;;;;;;5087652;27;61843;-78
2023/01/04 11:37:33;;;;;;;;;0.00;0.00;;;;;;;;5089628;27;62470;-78
2023/01/04 11:40:11;;;;;;;;;1.00;0.00;;;;;;;;5092589;27;62210;-79
2023/01/04 11:42:36;;;;;;;;;0.00;0.00;;;;;;;;5088592;27;62222;-78
2023/01/04 11:45:01;;;;;;;;;0.00;0.00;;;;;;;;5087865;27;62025;-79
2023/01/04 11:47:29;;;;;;;;;0.00;0.00;;;;;;;;5089891;27;63604;-78
2023/01/04 11:49:55;;;;;;;;;0.00;0.00;;;;;;;;5089943;27;61815;-78
2023/01/04 11:52:29;;;;;;;;;0.00;0.00;;;;;;;;5093115;27;61764;-81
2023/01/04 11:54:54;;;;;;;;;1.75;1.00;;;;;;;;5102806;27;61906;-80
2023/01/04 11:57:19;;;;;;;;;0.00;0.00;;;;;;;;5081702;27;61701;-79
2023/01/04 12:00:05;;;;;;;;;1.00;0.00;;;;;;;;5082051;27;61802;-80
2023/01/04 12:02:30;;;;;;;;;0.00;0.00;;;;;;;;5080142;28;61918;-79
2023/01/04 12:04:55;;;;;;;;;2.00;0.00;;;;;;;;5080846;28;62185;-79
2023/01/04 12:07:31;;;;;;;;;0.00;0.00;;;;;;;;5080628;28;61830;-77
2023/01/04 12:09:57;;;;;;;;;0.00;0.00;;;;;;;;5081263;28;61868;-80
2023/01/04 12:12:26;;;;;;;;;1.75;0.00;;;;;;;;5079505;28;61882;-80
2023/01/04 12:14:51;;;;;;;;;0.25;0.25;;;;;;;;5081168;28;62049;-79
2023/01/04 12:17:29;;;;;;;;;0.00;0.00;;;;;;;;5079530;28;64598;-80
2023/01/04 12:19:55;;;;;;;;;0.75;0.00;;;;;;;;5061124;28;61937;-79
2023/01/04 12:22:39;;;;;;;;;0.75;0.00;;;;;;;;5085443;27;62026;-80
2023/01/04 12:25:25;;;;;;;;;0.75;0.75;;;;;;;;5090471;27;62372;-81
2023/01/04 12:27:51;;;;;;;;;0.25;0.25;;;;;;;;5076473;27;63579;-80
2023/01/04 12:30:35;;;;;;;;;0.00;0.00;;;;;;;;5086129;27;62155;-82
2023/01/04 12:33:20;;;;;;;;;0.50;0.00;;;;;;;;5087338;27;62071;-80
2023/01/04 12:35:59;;;;;;;;;0.25;0.25;;;;;;;;5082882;27;61989;-80
2023/01/04 12:38:43;;;;;;;;;1.00;1.00;;;;;;;;5081585;27;61968;-81
2023/01/04 12:41:09;;;;;;;;;0.00;0.00;;;;;;;;5083990;27;61817;-82
2023/01/04 12:43:37;;;;;;;;;0.00;0.00;;;;;;;;5089279;27;61838;-81
2023/01/04 12:49:26;;;;;;;;;0.00;0.00;;;;;;;;5092960;27;61784;-82
2023/01/04 12:52:07;;;;;;;;;0.00;0.00;;;;;;;;5090075;27;61954;-78
2023/01/04 12:54:46;;;;;;;;;1.00;1.00;;;;;;;;5090948;27;61755;-78
2023/01/04 12:57:29;;;;;;;;;1.75;1.00;;;;;;;;5091011;27;61909;-79
2023/01/04 13:00:05;;;;;;;;;3.50;1.00;;;;;;;;5090919;27;63735;-79
2023/01/04 13:02:32;;;;;;;;;3.75;1.00;;;;;;;;5090223;27;61996;-78
2023/01/04 13:04:59;;;;;;;;;1.50;1.50;;;;;;;;5092244;27;61782;-79
2023/01/04 13:07:28;;;;;;;;;0.00;0.00;;;;;;;;5094763;27;62210;-79
2023/01/04 13:09:57;;;;;;;;;0.00;0.00;;;;;;;;5092815;27;61955;-79
2023/01/04 13:12:25;;;;;;;;;1.00;1.00;;;;;;;;5092786;27;62052;-79
2023/01/04 13:14:53;;;;;;;;;0.25;0.00;;;;;;;;5090044;27;61704;-79
2023/01/04 13:17:24;;;;;;;;;0.00;0.00;;;;;;;;5093360;27;61777;-79
2023/01/04 13:19:49;;;;;;;;;1.00;1.00;;;;;;;;5088772;27;62596;-79
2023/01/04 13:22:17;;;;;;;;;0.00;0.00;;;;;;;;5092120;27;61987;-79
2023/01/04 13:24:43;;;;;;;;;0.00;0.00;;;;;;;;5094074;27;62592;-79
2023/01/04 13:27:13;;;;;;;;;0.50;0.00;;;;;;;;5090295;27;62009;-80
2023/01/04 13:29:39;;;;;;;;;0.25;0.25;;;;;;;;5090130;27;63595;-79
2023/01/04 13:32:05;;;;;;;;;0.00;0.00;;;;;;;;5094512;27;61771;-80
2023/01/04 13:34:30;;;;;;;;;0.25;0.25;;;;;;;;5091253;27;61997;-80
2023/01/04 13:37:02;;;;;;;;;1.25;0.00;;;;;;;;5094783;27;61896;-80
2023/01/04 13:39:27;;;;;;;;;0.00;0.00;;;;;;;;5091322;27;62053;-79
2023/01/04 13:41:53;;;;;;;;;0.00;0.00;;;;;;;;5094628;27;62091;-78
2023/01/04 13:44:25;;;;;;;;;0.00;0.00;;;;;;;;5097443;27;61876;-78
2023/01/04 13:46:54;;;;;;;;;2.00;1.00;;;;;;;;5095662;27;61834;-78
2023/01/04 13:49:19;;;;;;;;;0.75;0.75;;;;;;;;5087745;27;62865;-78
2023/01/04 13:51:44;;;;;;;;;0.25;0.25;;;;;;;;5091848;27;61925;-79
2023/01/04 13:54:18;;;;;;;;;1.50;0.00;;;;;;;;5092613;27;61999;-80
2023/01/04 13:56:43;;;;;;;;;0.00;0.00;;;;;;;;5083101;27;62144;-78
2023/01/04 13:59:09;;;;;;;;;0.75;0.75;;;;;;;;5079410;28;63673;-80
2023/01/04 14:01:36;;;;;;;;;0.25;0.25;;;;;;;;5082116;28;62041;-80
2023/01/04 14:04:06;;;;;;;;;1.00;1.00;;;;;;;;5080831;28;61878;-80
2023/01/04 14:06:43;;;;;;;;;0.00;0.00;;;;;;;;5082260;27;62255;-80
2023/01/04 14:09:08;;;;;;;;;0.00;0.00;;;;;;;;5081821;28;61879;-80
2023/01/04 14:11:57;;;;;;;;;0.00;0.00;;;;;;;;5080707;28;61975;-80
2023/01/04 14:14:25;;;;;;;;;0.00;0.00;;;;;;;;5082831;27;61916;-80
2023/01/04 14:17:03;;;;;;;;;0.00;0.00;;;;;;;;5082327;28;61884;-80
2023/01/04 14:19:31;;;;;;;;;1.00;0.00;;;;;;;;5083165;28;61943;-79
2023/01/04 14:21:56;;;;;;;;;0.00;0.00;;;;;;;;5083766;28;61805;-80
2023/01/04 14:24:32;;;;;;;;;0.00;0.00;;;;;;;;5083866;28;61617;-80
2023/01/04 14:26:57;;;;;;;;;1.00;0.00;;;;;;;;5084016;28;61706;-79
2023/01/04 14:29:28;;;;;;;;;0.00;0.00;;;;;;;;5083500;28;61733;-79
2023/01/04 14:31:54;;;;;;;;;0.00;0.00;;;;;;;;5083799;28;61770;-79
2023/01/04 14:34:19;;;;;;;;;0.00;0.00;;;;;;;;5083829;28;62192;-79
2023/01/04 14:36:44;;;;;;;;;0.00;0.00;;;;;;;;5082330;28;61801;-79
2023/01/04 14:39:11;;;;;;;;;0.00;0.00;;;;;;;;5083200;28;61709;-79
2023/01/04 14:41:38;;;;;;;;;0.00;0.00;;;;;;;;5098472;27;61940;-79
2023/01/04 14:44:10;;;;;;;;;0.00;0.00;;;;;;;;5104213;27;61900;-79
2023/01/04 14:46:36;;;;;;;;;0.00;0.00;;;;;;;;5102959;27;61747;-80
2023/01/04 14:49:01;;;;;;;;;0.75;0.75;;;;;;;;5103068;27;62512;-79
2023/01/04 14:51:32;;;;;;;;;1.50;1.00;;;;;;;;5102605;27;61854;-79
2023/01/04 14:53:57;;;;;;;;;0.00;0.00;;;;;;;;5102900;27;61907;-79
2023/01/04 14:56:22;;;;;;;;;1.25;1.25;;;;;;;;5103861;27;61967;-79
2023/01/04 14:58:47;;;;;;;;;0.00;0.00;;;;;;;;5103263;27;61775;-80
2023/01/04 15:01:13;;;;;;;;;0.00;0.00;;;;;;;;5103967;27;61923;-79
2023/01/04 15:03:38;;;;;;;;;0.00;0.00;;;;;;;;5102077;27;62064;-79
2023/01/04 15:06:04;;;;;;;;;0.00;0.00;;;;;;;;5104005;27;61843;-80
2023/01/04 15:08:29;;;;;;;;;1.50;0.50;;;;;;;;5103039;27;62836;-79
2023/01/04 15:10:54;;;;;;;;;0.00;0.00;;;;;;;;5101861;27;61974;-79
2023/01/04 15:13:20;;;;;;;;;0.00;0.00;;;;;;;;5102312;27;61791;-80
2023/01/04 15:15:45;;;;;;;;;0.75;0.75;;;;;;;;5103684;27;61706;-80
2023/01/04 15:18:10;;;;;;;;;3.00;2.00;;;;;;;;5101890;27;63567;-80
2023/01/04 15:20:38;;;;;;;;;2.00;2.00;;;;;;;;5103080;27;61921;-80
2023/01/04 15:23:03;;;;;;;;;1.25;1.00;;;;;;;;5102015;27;62134;-79
2023/01/04 15:25:28;;;;;;;;;0.00;0.00;;;;;;;;5103368;27;61820;-80
2023/01/04 15:27:54;;;;;;;;;0.00;0.00;;;;;;;;5101532;27;63722;-80
2023/01/04 15:30:19;;;;;;;;;1.00;0.00;;;;;;;;5103420;27;61762;-79
2023/01/04 15:32:44;;;;;;;;;0.00;0.00;;;;;;;;5103492;27;61792;-80
2023/01/04 15:35:10;;;;;;;;;0.00;0.00;;;;;;;;5103545;27;61878;-79
2023/01/04 15:37:35;;;;;;;;;0.00;0.00;;;;;;;;5102429;27;62093;-80
2023/01/04 15:40:00;;;;;;;;;0.00;0.00;;;;;;;;5098978;27;61790;-80